createdAt,value
2023-05-11T00:00:03.721Z,1.40
2023-05-11T00:02:33.195Z,1.20
2023-05-11T00:05:00.928Z,1.50
2023-05-11T00:07:28.656Z,1.40
2023-05-11T00:09:56.479Z,1.30
2023-05-11T00:12:24.159Z,1.30
2023-05-11T00:14:53.177Z,1.10
2023-05-11T00:17:20.942Z,1.27
2023-05-11T00:19:48.646Z,1.50
2023-05-11T00:22:16.364Z,1.38
2023-05-11T00:24:44.038Z,1.45
2023-05-11T00:27:11.725Z,1.65
2023-05-11T00:29:39.442Z,1.60
2023-05-11T00:32:08.576Z,1.25
2023-05-11T00:34:36.442Z,1.10
2023-05-11T00:37:04.209Z,1.40
2023-05-11T00:39:32.145Z,1.52
2023-05-11T00:42:00.719Z,1.30
2023-05-11T00:44:28.436Z,1.40
2023-05-11T00:46:56.190Z,1.40
2023-05-11T00:49:25.429Z,1.48
2023-05-11T00:51:53.305Z,1.40
2023-05-11T00:54:21.080Z,1.58
2023-05-11T00:56:49.238Z,1.10
2023-05-11T00:59:17.327Z,1.30
2023-05-11T01:01:45.054Z,1.40
2023-05-11T01:04:13.494Z,1.23
2023-05-11T01:06:46.582Z,1.35
2023-05-11T01:09:18.558Z,1.45
2023-05-11T01:11:50.032Z,1.30
2023-05-11T01:14:21.307Z,1.30
2023-05-11T01:16:50.661Z,1.23
2023-05-11T01:19:20.298Z,1.30
2023-05-11T01:21:49.330Z,1.25
2023-05-11T01:24:26.891Z,1.23
2023-05-11T01:27:04.465Z,1.13
2023-05-11T01:29:44.063Z,1.20
2023-05-11T01:32:16.684Z,1.20
2023-05-11T01:34:44.405Z,1.10
2023-05-11T01:37:15.195Z,1.48
2023-05-11T01:39:46.910Z,1.45
2023-05-11T01:42:15.368Z,1.15
2023-05-11T01:44:44.469Z,1.30
2023-05-11T01:47:13.539Z,1.25
2023-05-11T01:49:41.829Z,1.27
2023-05-11T01:52:09.949Z,1.25
2023-05-11T01:54:37.727Z,1.10
2023-05-11T01:57:05.430Z,1.30
2023-05-11T01:59:33.157Z,1.23
2023-05-11T02:02:01.173Z,1.27
2023-05-11T02:04:30.234Z,1.13
2023-05-11T02:06:58.046Z,1.20
2023-05-11T02:09:25.830Z,1.20
2023-05-11T02:11:54.232Z,1.20
2023-05-11T02:14:21.900Z,1.15
2023-05-11T02:16:49.605Z,1.30
2023-05-11T02:19:17.337Z,1.27
2023-05-11T02:21:46.341Z,1.30
2023-05-11T02:24:14.089Z,1.30
2023-05-11T02:26:42.635Z,1.30
2023-05-11T02:29:10.403Z,1.02
2023-05-11T02:31:41.363Z,1.10
2023-05-11T02:34:18.923Z,1.20
2023-05-11T02:36:48.546Z,1.15
2023-05-11T02:39:21.664Z,1.00
2023-05-11T02:41:51.002Z,1.08
2023-05-11T02:44:20.978Z,1.17
2023-05-11T02:46:48.743Z,1.27
2023-05-11T02:49:16.465Z,1.25
2023-05-11T02:51:44.423Z,1.30
2023-05-11T02:54:13.578Z,1.30
2023-05-11T02:56:46.251Z,1.10
2023-05-11T02:59:13.990Z,1.20
2023-05-11T03:01:42.028Z,1.30
2023-05-11T03:04:11.943Z,1.35
2023-05-11T03:06:39.657Z,1.25
2023-05-11T03:09:10.274Z,1.30
2023-05-11T03:11:44.075Z,1.33
2023-05-11T03:14:12.287Z,1.10
2023-05-11T03:16:40.746Z,1.20
2023-05-11T03:19:08.635Z,1.20
2023-05-11T03:21:36.819Z,1.27
2023-05-11T03:24:05.654Z,1.10
2023-05-11T03:26:33.627Z,1.23
2023-05-11T03:29:03.112Z,1.30
2023-05-11T03:31:30.861Z,1.27
2023-05-11T03:34:00.228Z,1.30
2023-05-11T03:36:29.672Z,1.10
2023-05-11T03:38:57.456Z,1.02
2023-05-11T03:41:28.930Z,1.10
2023-05-11T03:43:57.352Z,1.00
2023-05-11T03:46:26.629Z,1.20
2023-05-11T03:48:54.455Z,1.10
2023-05-11T03:51:26.045Z,1.00
2023-05-11T03:53:53.735Z,1.20
2023-05-11T03:56:22.033Z,1.20
2023-05-11T03:58:49.726Z,1.02
2023-05-11T04:01:17.458Z,1.10
2023-05-11T04:03:50.464Z,1.83
2023-05-11T04:06:18.708Z,1.27
2023-05-11T04:08:49.500Z,1.02
2023-05-11T04:11:17.210Z,1.20
2023-05-11T04:13:44.904Z,1.13
2023-05-11T04:16:12.656Z,1.02
2023-05-11T04:18:40.492Z,1.13
2023-05-11T04:21:09.556Z,0.93
2023-05-11T04:23:38.014Z,1.10
2023-05-11T04:26:05.794Z,1.27
2023-05-11T04:28:33.501Z,1.10
2023-05-11T04:31:01.192Z,1.00
2023-05-11T04:33:30.053Z,1.00
2023-05-11T04:35:58.684Z,1.08
2023-05-11T04:38:27.748Z,1.23
2023-05-11T04:40:55.641Z,1.23
2023-05-11T04:43:24.005Z,1.10
2023-05-11T04:45:51.871Z,1.30
2023-05-11T04:48:28.181Z,1.00
2023-05-11T04:50:56.433Z,1.10
2023-05-11T04:53:29.994Z,1.20
2023-05-11T04:55:58.233Z,1.20
2023-05-11T04:58:26.021Z,1.10
2023-05-11T05:00:53.721Z,1.35
2023-05-11T05:03:21.510Z,1.17
2023-05-11T05:05:49.977Z,1.02
2023-05-11T05:08:18.560Z,1.10
2023-05-11T05:10:48.041Z,1.17
2023-05-11T05:13:16.676Z,1.17
2023-05-11T05:15:44.449Z,1.10
2023-05-11T05:18:12.823Z,1.10
2023-05-11T05:20:40.603Z,1.08
2023-05-11T05:23:09.104Z,1.10
2023-05-11T05:25:36.797Z,1.10
2023-05-11T05:28:05.849Z,1.30
2023-05-11T05:30:34.227Z,1.10
2023-05-11T05:33:01.958Z,1.13
2023-05-11T05:35:29.891Z,1.10
2023-05-11T05:37:57.670Z,0.90
2023-05-11T05:40:25.320Z,1.08
2023-05-11T05:42:56.388Z,1.05
2023-05-11T05:45:26.772Z,1.17
2023-05-11T05:47:55.164Z,1.08
2023-05-11T05:50:23.454Z,1.20
2023-05-11T05:52:51.129Z,1.17
2023-05-11T05:55:20.847Z,1.20
2023-05-11T05:57:50.664Z,1.05
2023-05-11T06:00:18.968Z,1.20
2023-05-11T06:02:56.071Z,1.00
2023-05-11T06:05:27.149Z,1.10
2023-05-11T06:08:09.051Z,1.02
2023-05-11T06:10:38.183Z,0.90
2023-05-11T06:13:06.066Z,1.02
2023-05-11T06:15:34.200Z,1.10
2023-05-11T06:18:10.732Z,1.10
2023-05-11T06:20:41.212Z,1.17
2023-05-11T06:23:09.366Z,1.00
2023-05-11T06:25:40.327Z,1.15
2023-05-11T06:28:08.896Z,1.20
2023-05-11T06:30:39.269Z,1.00
2023-05-11T06:33:10.862Z,1.00
2023-05-11T06:35:40.348Z,1.00
2023-05-11T06:38:10.330Z,1.10
2023-05-11T06:40:38.338Z,0.90
2023-05-11T06:43:06.351Z,1.10
2023-05-11T06:45:48.350Z,1.10
2023-05-11T06:48:17.753Z,1.10
2023-05-11T06:50:45.552Z,1.05
2023-05-11T06:53:17.636Z,1.00
2023-05-11T06:55:45.355Z,1.10
2023-05-11T06:58:13.155Z,0.90
2023-05-11T07:00:40.822Z,0.90
2023-05-11T07:03:08.509Z,1.10
2023-05-11T07:05:39.027Z,1.20
2023-05-11T07:08:06.855Z,1.02
2023-05-11T07:10:34.542Z,1.05
2023-05-11T07:13:02.280Z,1.10
2023-05-11T07:15:30.058Z,0.95
2023-05-11T07:18:00.875Z,1.10
2023-05-11T07:20:28.588Z,1.05
2023-05-11T07:22:59.545Z,1.05
2023-05-11T07:25:27.240Z,1.00
2023-05-11T07:27:54.923Z,1.00
2023-05-11T07:30:22.932Z,1.08
2023-05-11T07:32:50.917Z,1.10
2023-05-11T07:35:18.672Z,1.00
2023-05-11T07:37:46.383Z,1.02
2023-05-11T07:40:15.443Z,1.15
2023-05-11T07:42:43.180Z,0.93
2023-05-11T07:45:11.532Z,1.20
2023-05-11T07:47:39.271Z,1.13
2023-05-11T07:50:08.481Z,1.10
2023-05-11T07:52:36.240Z,1.10
2023-05-11T07:55:04.574Z,1.15
2023-05-11T07:57:33.605Z,1.00
2023-05-11T08:00:01.364Z,1.13
2023-05-11T08:02:29.291Z,1.00
2023-05-11T08:04:57.056Z,1.00
2023-05-11T08:07:24.923Z,1.00
2023-05-11T08:09:52.662Z,1.00
2023-05-11T08:12:20.317Z,1.00
2023-05-11T08:14:49.358Z,0.90
2023-05-11T08:17:17.085Z,1.08
2023-05-11T08:19:44.800Z,5.00
2023-05-11T08:22:12.550Z,8.38
2023-05-11T08:24:40.272Z,7.78
2023-05-11T08:27:08.096Z,6.50
2023-05-11T08:29:35.793Z,4.10
2023-05-11T08:32:05.309Z,4.35
2023-05-11T08:34:33.224Z,3.78
2023-05-11T08:37:01.729Z,3.83
2023-05-11T08:39:43.727Z,3.53
2023-05-11T08:42:15.137Z,3.92
2023-05-11T08:44:43.740Z,3.28
2023-05-11T08:49:43.554Z,3.13
2023-05-11T08:52:11.235Z,3.10
2023-05-11T08:54:39.209Z,3.38
2023-05-11T08:57:07.145Z,3.90
2023-05-11T08:59:34.917Z,3.53
2023-05-11T09:02:02.644Z,3.83
2023-05-11T09:04:31.653Z,3.05
2023-05-11T09:06:59.414Z,3.92
2023-05-11T09:09:27.296Z,3.75
2023-05-11T09:11:55.217Z,4.32
2023-05-11T09:14:26.935Z,4.05
2023-05-11T09:16:55.256Z,5.47
2023-05-11T09:19:22.957Z,4.18
2023-05-11T09:21:53.280Z,4.55
2023-05-11T09:24:21.203Z,4.75
2023-05-11T09:26:48.978Z,3.90
2023-05-11T09:29:19.725Z,4.10
2023-05-11T09:31:48.047Z,3.97
2023-05-11T09:34:16.611Z,4.95
2023-05-11T09:36:44.727Z,4.43
2023-05-11T09:39:15.848Z,4.10
2023-05-11T09:41:44.493Z,4.32
2023-05-11T09:44:13.582Z,4.03
2023-05-11T09:46:42.133Z,17.25
2023-05-11T09:49:10.071Z,4.43
2023-05-11T09:51:38.358Z,4.30
2023-05-11T09:54:18.589Z,4.70
2023-05-11T09:56:47.466Z,5.93
2023-05-11T09:59:16.973Z,4.80
2023-05-11T10:01:44.900Z,4.30
2023-05-11T10:04:22.896Z,5.13
2023-05-11T10:06:52.889Z,5.20
2023-05-11T10:09:25.375Z,5.43
2023-05-11T10:11:53.258Z,5.70
2023-05-11T10:14:21.922Z,7.05
2023-05-11T10:16:49.615Z,4.43
2023-05-11T10:19:17.407Z,5.80
2023-05-11T10:21:45.207Z,5.80
2023-05-11T10:24:13.763Z,5.20
2023-05-11T10:26:42.963Z,5.40
2023-05-11T10:29:10.772Z,5.35
2023-05-11T10:31:38.618Z,5.22
2023-05-11T10:34:06.766Z,7.50
2023-05-11T10:36:34.806Z,7.03
2023-05-11T10:39:02.488Z,6.10
2023-05-11T10:41:37.810Z,6.72
2023-05-11T10:44:21.163Z,5.38
2023-05-11T10:46:59.418Z,6.82
2023-05-11T10:49:40.392Z,6.15
2023-05-11T10:52:20.581Z,6.13
2023-05-11T10:54:56.115Z,6.18
2023-05-11T10:57:38.886Z,5.75
2023-05-11T11:00:31.105Z,5.90
2023-05-11T11:02:59.061Z,5.18
2023-05-11T11:05:36.212Z,5.57
2023-05-11T11:08:04.689Z,4.85
2023-05-11T11:10:33.654Z,4.80
2023-05-11T11:13:05.667Z,5.10
2023-05-11T11:16:14.739Z,4.65
2023-05-11T11:18:44.263Z,4.85
2023-05-11T11:21:15.605Z,5.35
2023-05-11T11:23:48.982Z,4.85
2023-05-11T11:26:18.944Z,3.95
2023-05-11T11:29:08.713Z,4.30
2023-05-11T11:31:38.170Z,4.82
2023-05-11T11:34:39.907Z,4.50
2023-05-11T11:37:08.765Z,4.78
2023-05-11T11:39:50.140Z,4.28
2023-05-11T11:42:18.704Z,4.00
2023-05-11T11:44:46.771Z,3.80
2023-05-11T11:47:16.473Z,4.50
2023-05-11T11:49:44.907Z,4.30
2023-05-11T11:52:13.333Z,5.75
2023-05-11T11:54:41.194Z,6.95
2023-05-11T11:57:43.987Z,7.85
2023-05-11T12:00:12.821Z,6.93
2023-05-11T12:02:43.150Z,6.55
2023-05-11T12:05:12.528Z,6.10
2023-05-11T12:07:42.241Z,5.25
2023-05-11T12:10:11.307Z,6.18
2023-05-11T12:12:39.556Z,5.28
2023-05-11T12:15:08.783Z,5.15
2023-05-11T12:17:39.094Z,5.10
2023-05-11T12:20:15.894Z,4.90
2023-05-11T12:22:44.488Z,5.47
2023-05-11T12:25:12.938Z,5.05
2023-05-11T12:27:48.377Z,4.35
2023-05-11T12:30:22.960Z,4.50
2023-05-11T12:32:56.480Z,4.78
2023-05-11T12:35:27.005Z,4.40
2023-05-11T12:37:54.872Z,4.70
2023-05-11T12:40:22.623Z,4.50
2023-05-11T12:42:51.885Z,4.75
2023-05-11T12:45:20.065Z,5.53
2023-05-11T12:47:48.193Z,4.55
2023-05-11T12:50:15.929Z,41.47
2023-05-11T12:52:44.993Z,8.00
2023-05-11T12:55:12.761Z,6.97
2023-05-11T12:57:41.163Z,6.35
2023-05-11T13:00:12.972Z,6.72
2023-05-11T13:02:50.848Z,5.47
2023-05-11T13:05:20.605Z,5.45
2023-05-11T13:07:57.567Z,5.38
2023-05-11T13:10:25.640Z,6.00
2023-05-11T13:12:53.543Z,6.10
2023-05-11T13:15:21.947Z,5.25
2023-05-11T13:17:50.901Z,6.30
2023-05-11T13:20:19.568Z,6.43
2023-05-11T13:22:47.728Z,6.38
2023-05-11T13:25:18.883Z,5.93
2023-05-11T13:27:46.851Z,6.70
2023-05-11T13:30:14.998Z,7.63
2023-05-11T13:32:42.808Z,6.68
2023-05-11T13:35:10.993Z,7.80
2023-05-11T13:37:38.719Z,7.50
2023-05-11T13:40:08.787Z,7.88
2023-05-11T13:42:37.910Z,6.93
2023-05-11T13:45:07.995Z,6.55
2023-05-11T13:47:35.853Z,5.55
2023-05-11T13:50:03.651Z,5.80
2023-05-11T13:52:31.446Z,5.68
2023-05-11T13:54:59.158Z,6.18
2023-05-11T13:57:26.958Z,7.28
2023-05-11T13:59:56.719Z,5.20
2023-05-11T14:02:24.490Z,6.15
2023-05-11T14:04:52.238Z,19.52
2023-05-11T14:07:19.991Z,7.97
2023-05-11T14:09:48.491Z,6.78
2023-05-11T14:12:16.218Z,6.55
2023-05-11T14:14:43.981Z,6.65
2023-05-11T14:17:13.433Z,14.35
2023-05-11T14:19:41.250Z,10.38
2023-05-11T14:26:22.511Z,7.43
2023-05-11T14:28:50.181Z,10.18
2023-05-11T14:31:18.219Z,9.88
2023-05-11T14:33:47.258Z,8.00
2023-05-11T14:36:14.961Z,6.93
2023-05-11T14:38:42.654Z,6.82
2023-05-11T14:41:10.410Z,6.53
2023-05-11T14:43:40.390Z,6.72
2023-05-11T14:46:08.476Z,6.68
2023-05-11T14:48:36.419Z,6.75
2023-05-11T14:51:06.432Z,6.97
2023-05-11T14:53:34.154Z,7.85
2023-05-11T14:56:01.934Z,6.72
2023-05-11T14:58:29.638Z,8.15
2023-05-11T15:00:57.602Z,7.75
2023-05-11T15:03:25.498Z,6.50
2023-05-11T15:05:53.294Z,7.93
2023-05-11T15:08:29.681Z,8.75
2023-05-11T15:10:58.094Z,8.05
2023-05-11T15:13:25.830Z,7.82
2023-05-11T15:15:53.591Z,7.63
2023-05-11T15:18:21.443Z,6.97
2023-05-11T15:20:49.316Z,7.15
2023-05-11T15:23:17.416Z,7.05
2023-05-11T15:25:46.558Z,6.97
2023-05-11T15:28:14.680Z,7.50
2023-05-11T15:30:42.457Z,7.15
2023-05-11T15:33:10.639Z,6.63
2023-05-11T15:35:38.441Z,6.60
2023-05-11T15:38:06.246Z,6.82
2023-05-11T15:40:34.129Z,6.18
2023-05-11T15:43:03.546Z,6.45
2023-05-11T15:45:31.466Z,6.50
2023-05-11T15:47:59.280Z,6.20
2023-05-11T15:50:27.177Z,7.25
2023-05-11T15:52:56.314Z,6.70
2023-05-11T15:55:25.347Z,8.38
2023-05-11T15:57:53.098Z,6.65
2023-05-11T16:00:22.203Z,6.10
2023-05-11T16:02:50.048Z,6.20
2023-05-11T16:05:18.127Z,6.50
2023-05-11T16:07:45.863Z,6.30
2023-05-11T16:10:13.583Z,6.38
2023-05-11T16:12:41.268Z,6.07
2023-05-11T16:15:10.126Z,6.35
2023-05-11T16:17:39.176Z,6.88
2023-05-11T16:20:08.195Z,5.68
2023-05-11T16:22:37.181Z,6.03
2023-05-11T16:25:05.780Z,5.97
2023-05-11T16:27:33.513Z,20.38
2023-05-11T16:30:21.774Z,8.18
2023-05-11T16:32:51.282Z,6.90
2023-05-11T16:35:19.181Z,7.28
2023-05-11T16:37:47.717Z,6.50
2023-05-11T16:40:18.152Z,6.25
2023-05-11T16:42:46.605Z,6.90
2023-05-11T16:45:14.982Z,6.35
2023-05-11T16:47:42.949Z,6.75
2023-05-11T16:50:14.418Z,7.07
2023-05-11T16:52:42.589Z,6.82
2023-05-11T16:55:10.959Z,6.70
2023-05-11T16:57:38.993Z,6.30
2023-05-11T17:00:08.121Z,6.10
2023-05-11T17:02:35.964Z,6.43
2023-05-11T17:05:04.848Z,6.85
2023-05-11T17:07:33.996Z,7.80
2023-05-11T17:10:01.817Z,7.78
2023-05-11T17:12:29.868Z,8.07
2023-05-11T17:14:58.297Z,7.43
2023-05-11T17:17:26.156Z,7.30
2023-05-11T17:19:54.220Z,6.82
2023-05-11T17:22:21.930Z,7.05
2023-05-11T17:24:51.716Z,6.45
2023-05-11T17:27:19.416Z,6.82
2023-05-11T17:29:47.160Z,6.85
2023-05-11T17:32:14.921Z,6.72
2023-05-11T17:34:43.349Z,6.93
2023-05-11T17:37:20.455Z,6.53
2023-05-11T17:39:57.298Z,6.22
2023-05-11T17:42:34.185Z,5.97
2023-05-11T17:45:06.337Z,5.90
2023-05-11T17:47:34.098Z,5.57
2023-05-11T17:50:02.480Z,5.88
2023-05-11T17:52:30.235Z,5.40
2023-05-11T17:54:59.678Z,5.40
2023-05-11T17:57:27.726Z,5.47
2023-05-11T17:59:55.819Z,5.60
2023-05-11T18:02:23.602Z,5.32
2023-05-11T18:04:51.429Z,5.18
2023-05-11T18:07:19.240Z,5.20
2023-05-11T18:09:46.906Z,5.00
2023-05-11T18:12:16.064Z,5.30
2023-05-11T18:14:43.782Z,5.07
2023-05-11T18:17:11.479Z,4.75
2023-05-11T18:19:39.558Z,5.20
2023-05-11T18:22:07.267Z,4.85
2023-05-11T18:24:34.952Z,5.13
2023-05-11T18:27:02.736Z,4.60
2023-05-11T18:29:31.770Z,4.70
2023-05-11T18:31:59.505Z,4.65
2023-05-11T18:34:27.471Z,4.50
2023-05-11T18:36:55.191Z,4.63
2023-05-11T18:39:22.854Z,4.75
2023-05-11T18:41:50.526Z,4.32
2023-05-11T18:44:19.179Z,5.03
2023-05-11T18:46:48.320Z,4.82
2023-05-11T18:49:16.038Z,5.10
2023-05-11T18:51:43.743Z,4.78
2023-05-11T18:54:11.583Z,4.60
2023-05-11T18:56:39.270Z,4.55
2023-05-11T18:59:07.668Z,4.50
2023-05-11T19:01:47.180Z,4.53
2023-05-11T19:04:19.526Z,4.10
2023-05-11T19:06:47.482Z,4.38
2023-05-11T19:09:15.157Z,4.07
2023-05-11T19:11:42.970Z,4.72
2023-05-11T19:14:14.245Z,4.10
2023-05-11T19:16:41.942Z,3.97
2023-05-11T19:19:09.766Z,4.60
2023-05-11T19:21:40.402Z,3.90
2023-05-11T19:24:08.643Z,4.00
2023-05-11T19:26:36.536Z,4.07
2023-05-11T19:29:04.833Z,4.20
2023-05-11T19:31:32.605Z,4.32
2023-05-11T19:34:01.795Z,3.90
2023-05-11T19:36:29.662Z,4.25
2023-05-11T19:38:58.649Z,4.32
2023-05-11T19:41:26.738Z,4.07
2023-05-11T19:43:54.815Z,4.50
2023-05-11T19:46:23.204Z,4.07
2023-05-11T19:48:50.916Z,4.05
2023-05-11T19:51:18.652Z,4.28
2023-05-11T19:53:46.482Z,4.40
2023-05-11T19:56:15.734Z,4.20
2023-05-11T19:58:43.490Z,4.20
2023-05-11T20:01:11.223Z,4.68
2023-05-11T20:03:39.219Z,4.35
2023-05-11T20:06:07.071Z,3.90
2023-05-11T20:08:34.846Z,4.40
2023-05-11T20:11:02.530Z,4.28
2023-05-11T20:13:31.914Z,4.93
2023-05-11T20:16:00.211Z,4.40
2023-05-11T20:18:28.049Z,4.47
2023-05-11T20:20:55.930Z,4.50
2023-05-11T20:23:23.594Z,5.28
2023-05-11T20:25:51.332Z,5.18
2023-05-11T20:28:20.841Z,5.20
2023-05-11T20:30:49.969Z,4.70
2023-05-11T20:35:48.237Z,4.95
2023-05-11T20:38:15.922Z,5.32
2023-05-11T20:40:43.582Z,5.72
2023-05-11T20:43:13.689Z,5.60
2023-05-11T20:45:42.257Z,5.53
2023-05-11T20:48:11.465Z,5.47
2023-05-11T20:50:39.779Z,5.45
2023-05-11T20:53:07.471Z,5.43
2023-05-11T20:55:35.124Z,5.65
2023-05-11T20:58:04.267Z,6.38
2023-05-11T21:00:31.964Z,6.13
2023-05-11T21:02:59.657Z,5.63
2023-05-11T21:05:28.780Z,6.28
2023-05-11T21:07:57.134Z,6.22
2023-05-11T21:10:24.842Z,6.03
2023-05-11T21:12:52.520Z,6.20
2023-05-11T21:15:20.246Z,6.35
2023-05-11T21:17:48.052Z,6.10
2023-05-11T21:20:16.247Z,6.15
2023-05-11T21:22:45.376Z,6.53
2023-05-11T21:25:13.270Z,6.03
2023-05-11T21:27:41.505Z,6.88
2023-05-11T21:30:10.097Z,6.47
2023-05-11T21:32:37.885Z,6.55
2023-05-11T21:35:06.151Z,7.07
2023-05-11T21:37:35.510Z,7.00
2023-05-11T21:40:05.084Z,6.32
2023-05-11T21:42:36.040Z,6.70
2023-05-11T21:45:03.939Z,7.30
2023-05-11T21:47:31.668Z,7.00
2023-05-11T21:49:59.380Z,7.18
2023-05-11T21:52:27.397Z,6.82
2023-05-11T21:54:55.041Z,6.38
2023-05-11T21:57:24.226Z,6.63
2023-05-11T21:59:51.915Z,7.10
2023-05-11T22:02:19.610Z,7.32
2023-05-11T22:04:47.392Z,6.97
2023-05-11T22:07:15.102Z,7.20
2023-05-11T22:09:42.775Z,7.30
2023-05-11T22:12:10.592Z,6.80
2023-05-11T22:14:39.588Z,6.88
2023-05-11T22:17:07.262Z,6.82
2023-05-11T22:19:34.944Z,7.03
2023-05-11T22:22:02.603Z,7.00
2023-05-11T22:24:30.525Z,7.03
2023-05-11T22:26:59.290Z,7.50
2023-05-11T22:29:26.974Z,7.68
2023-05-11T22:31:56.071Z,7.70
2023-05-11T22:34:24.342Z,7.50
2023-05-11T22:36:52.094Z,8.13
2023-05-11T22:39:19.754Z,8.05
2023-05-11T22:41:47.408Z,8.18
2023-05-11T22:44:15.073Z,8.90
2023-05-11T22:46:42.718Z,8.88
2023-05-11T22:49:12.194Z,8.60
2023-05-11T22:51:39.856Z,8.77
2023-05-11T22:54:07.819Z,10.32
2023-05-11T22:56:35.562Z,9.93
2023-05-11T22:59:04.547Z,10.02
2023-05-11T23:01:33.444Z,11.00
2023-05-11T23:04:01.173Z,11.23
2023-05-11T23:06:30.189Z,12.27
2023-05-11T23:08:57.836Z,12.43
2023-05-11T23:11:25.538Z,13.70
2023-05-11T23:13:53.313Z,14.98
2023-05-11T23:16:20.985Z,14.23
2023-05-11T23:18:48.836Z,16.15
2023-05-11T23:21:16.683Z,17.00
2023-05-11T23:23:45.667Z,18.00
2023-05-11T23:26:13.760Z,20.38
2023-05-11T23:28:41.478Z,21.60
2023-05-11T23:31:09.208Z,21.35
2023-05-11T23:33:36.928Z,22.83
2023-05-11T23:36:04.936Z,23.75
2023-05-11T23:38:32.622Z,26.77
2023-05-11T23:41:01.616Z,26.35
2023-05-11T23:43:29.879Z,28.30
2023-05-11T23:45:57.716Z,29.40
2023-05-11T23:48:25.458Z,32.30
2023-05-11T23:50:53.241Z,30.60
2023-05-11T23:53:20.932Z,33.65
2023-05-11T23:55:48.942Z,38.15
2023-05-11T23:58:17.949Z,35.72
